Time;durP1;ratioP1;P1;durP2;ratioP2;P2;SDS_P1;SDS_P2;PMS_P1;PMS_P2;Temp;Humidity;BMP_temperature;BMP_pressure;BME280_temperature;BME280_humidity;BME280_pressure;Samples;Min_cycle;Max_cycle;Signal;HPM_P1;HPM_P2
2023/08/03 00:00:35;;;;;;;6.30;1.80;;;;;;;20.85;62.96;99140.70;106034;1272;100448;-85
2023/08/03 00:03:31;;;;;;;5.90;1.90;;;;;;;20.86;62.98;99137.00;106006;1261;98404;-84
2023/08/03 00:06:17;;;;;;;4.40;1.90;;;;;;;20.89;63.10;99132.89;105790;1260;98065;-84
2023/08/03 00:09:03;;;;;;;2.50;1.70;;;;;;;20.90;63.13;99122.70;105812;1264;98636;-84
2023/08/03 00:11:48;;;;;;;5.80;1.70;;;;;;;20.92;62.98;99123.59;105816;1265;101882;-84
2023/08/03 00:14:34;;;;;;;2.80;1.80;;;;;;;20.95;62.78;99125.70;105750;1260;99203;-83
2023/08/03 00:17:20;;;;;;;4.10;2.00;;;;;;;20.96;63.11;99115.55;105829;1270;99129;-85
2023/08/03 00:20:07;;;;;;;5.10;1.70;;;;;;;20.99;62.81;99105.99;105998;1267;97854;-84
2023/08/03 00:22:53;;;;;;;1.90;1.50;;;;;;;21.01;62.69;99093.66;105841;1267;98336;-85
2023/08/03 00:25:39;;;;;;;5.30;1.70;;;;;;;21.02;62.76;99087.98;105838;1261;101431;-85
2023/08/03 00:28:24;;;;;;;3.20;1.80;;;;;;;21.03;62.59;99092.99;105965;1260;100588;-85
2023/08/03 00:31:11;;;;;;;2.10;1.60;;;;;;;21.03;62.46;99095.77;105869;1265;99447;-84
2023/08/03 00:33:56;;;;;;;3.30;1.40;;;;;;;21.04;62.73;99091.48;105821;1261;98586;-85
2023/08/03 00:36:42;;;;;;;3.60;1.60;;;;;;;21.07;62.67;99089.33;105769;1260;98472;-86
2023/08/03 00:39:28;;;;;;;3.00;1.90;;;;;;;21.09;62.70;99101.27;105922;1261;102638;-85
2023/08/03 00:42:14;;;;;;;3.40;1.90;;;;;;;21.10;62.88;99105.45;106042;1267;99203;-87
2023/08/03 00:44:59;;;;;;;3.10;1.60;;;;;;;21.10;62.74;99102.01;105762;1267;97984;-85
2023/08/03 00:47:45;;;;;;;6.70;1.80;;;;;;;21.11;62.81;99096.06;105668;1266;98180;-85
2023/08/03 00:50:31;;;;;;;2.40;1.60;;;;;;;21.12;62.84;99074.34;105736;1267;98399;-86
2023/08/03 00:53:17;;;;;;;4.40;1.60;;;;;;;21.12;62.68;99076.13;105761;1264;103262;-87
2023/08/03 00:56:03;;;;;;;2.50;1.60;;;;;;;21.12;62.85;99083.80;105738;1263;100438;-86
2023/08/03 00:58:49;;;;;;;6.30;2.70;;;;;;;21.11;62.84;99082.83;105737;1267;97945;-85
2023/08/03 01:01:34;;;;;;;4.60;2.20;;;;;;;21.11;62.88;99072.05;105874;1264;97946;-84
2023/08/03 01:04:20;;;;;;;3.50;2.00;;;;;;;21.11;62.87;99061.05;105756;1267;97609;-85
2023/08/03 01:07:06;;;;;;;2.20;1.70;;;;;;;21.10;62.70;99056.27;105718;1267;102080;-85
2023/08/03 01:09:52;;;;;;;2.10;1.60;;;;;;;21.09;62.67;99057.38;105726;1261;99904;-84
2023/08/03 01:12:38;;;;;;;3.30;1.80;;;;;;;21.08;62.57;99061.36;105980;1265;98079;-85
2023/08/03 01:15:24;;;;;;;3.80;1.70;;;;;;;21.08;62.59;99061.70;105841;1267;97921;-82
2023/08/03 01:18:10;;;;;;;3.10;1.90;;;;;;;21.07;62.65;99056.04;106041;1260;97869;-84
2023/08/03 01:20:56;;;;;;;5.10;1.80;;;;;;;21.06;62.52;99041.02;106021;1261;101432;-85
2023/08/03 01:23:42;;;;;;;4.80;2.00;;;;;;;21.07;62.54;99041.06;105953;1261;99268;-84
2023/08/03 01:26:28;;;;;;;3.60;2.10;;;;;;;21.08;62.32;99038.32;106003;1262;98094;-84
2023/08/03 01:29:15;;;;;;;2.60;1.60;;;;;;;21.09;62.25;99034.17;105909;1264;97906;-84
2023/08/03 01:32:01;;;;;;;5.30;2.40;;;;;;;21.11;62.20;99029.13;105489;1266;98397;-86
2023/08/03 01:34:47;;;;;;;3.60;2.50;;;;;;;21.12;62.27;99025.80;105714;1265;101550;-84
2023/08/03 01:37:35;;;;;;;3.30;2.60;;;;;;;21.13;62.47;99027.95;106074;1261;100608;-84
2023/08/03 01:40:20;;;;;;;3.50;2.50;;;;;;;21.14;62.20;99019.52;105886;1267;99025;-85
2023/08/03 01:43:07;;;;;;;4.40;1.80;;;;;;;21.14;62.26;99010.24;105929;1265;97897;-85
2023/08/03 01:45:52;;;;;;;4.10;1.90;;;;;;;21.16;62.41;99004.19;106017;1261;98497;-86
2023/08/03 01:48:38;;;;;;;3.00;1.70;;;;;;;21.17;62.44;99005.74;105902;1260;101480;-84
2023/08/03 01:51:24;;;;;;;2.60;2.00;;;;;;;21.18;62.29;99012.87;105829;1266;99257;-84
2023/08/03 01:54:11;;;;;;;4.20;2.10;;;;;;;21.18;62.44;99008.78;105977;1261;97942;-84
2023/08/03 01:56:57;;;;;;;2.90;1.70;;;;;;;21.18;62.35;99002.94;105906;1260;97769;-86
2023/08/03 01:59:44;;;;;;;4.60;1.90;;;;;;;21.18;62.36;99001.81;105831;1261;97952;-86
2023/08/03 02:02:30;;;;;;;4.60;2.40;;;;;;;21.17;62.18;99007.98;105872;1260;102627;-84
2023/08/03 02:05:15;;;;;;;2.60;1.90;;;;;;;21.18;62.33;99015.80;105893;1260;99131;-85
2023/08/03 02:08:01;;;;;;;2.10;1.50;;;;;;;21.19;62.46;99032.90;106013;1265;98741;-84
2023/08/03 02:10:47;;;;;;;2.40;1.70;;;;;;;21.19;62.54;99044.55;105910;1260;97962;-85
2023/08/03 02:13:33;;;;;;;4.70;1.60;;;;;;;21.20;62.57;99047.48;105812;1271;98520;-85
2023/08/03 02:16:19;;;;;;;6.80;2.20;;;;;;;21.20;62.78;99048.17;106118;1263;102841;-86
2023/08/03 02:19:05;;;;;;;4.60;2.20;;;;;;;21.19;63.11;99062.14;105846;1261;99124;-85
2023/08/03 02:21:51;;;;;;;9.70;2.20;;;;;;;21.17;63.19;99073.21;105900;1260;98434;-84
2023/08/03 02:24:37;;;;;;;5.00;2.20;;;;;;;21.16;63.43;99082.98;105890;1259;98110;-85
2023/08/03 02:27:23;;;;;;;3.10;2.10;;;;;;;21.13;63.49;99073.55;105878;1265;98763;-84
2023/08/03 02:30:09;;;;;;;3.00;1.80;;;;;;;21.10;63.86;99061.55;106003;1265;101466;-85
2023/08/03 02:32:55;;;;;;;3.90;1.70;;;;;;;21.08;63.76;99039.85;106226;1261;100418;-85
2023/08/03 02:35:41;;;;;;;4.80;2.20;;;;;;;21.06;64.00;99039.05;105929;1262;97897;-84
2023/08/03 02:38:27;;;;;;;4.40;2.10;;;;;;;21.04;64.06;99054.39;105830;1265;98111;-86
2023/08/03 02:41:13;;;;;;;3.30;1.80;;;;;;;21.01;64.30;99057.83;105983;1260;98544;-84
2023/08/03 02:44:00;;;;;;;3.50;2.30;;;;;;;20.99;64.37;99053.63;105862;1261;102669;-85
2023/08/03 02:46:46;;;;;;;3.50;2.00;;;;;;;20.97;64.52;99075.96;106172;1261;99134;-85
2023/08/03 02:49:32;;;;;;;2.00;1.70;;;;;;;20.93;64.59;99093.64;105973;1266;99595;-84
2023/08/03 02:52:19;;;;;;;4.90;2.20;;;;;;;20.90;64.74;99106.37;105661;1260;98444;-85
2023/08/03 02:55:05;;;;;;;6.70;2.10;;;;;;;20.89;64.79;99106.98;105840;1263;98706;-85
2023/08/03 02:57:52;;;;;;;3.70;2.90;;;;;;;20.88;65.14;99102.30;105795;1259;102739;-83
2023/08/03 03:00:39;;;;;;;4.20;2.00;;;;;;;20.86;65.12;99094.48;105735;1261;99140;-85
2023/08/03 03:03:26;;;;;;;3.90;2.00;;;;;;;20.85;65.24;99036.30;106095;1261;99093;-85
2023/08/03 03:06:11;;;;;;;3.40;2.30;;;;;;;20.82;65.35;98989.70;105938;1260;98059;-84
2023/08/03 03:08:57;;;;;;;3.10;2.00;;;;;;;20.79;65.46;99016.63;106003;1261;98705;-86
2023/08/03 03:11:43;;;;;;;3.80;2.20;;;;;;;20.76;65.60;99045.77;106029;1261;102349;-85
2023/08/03 03:14:29;;;;;;;4.40;2.00;;;;;;;20.73;65.88;99057.52;105881;1261;99158;-85
2023/08/03 03:17:15;;;;;;;3.60;1.90;;;;;;;20.74;65.87;99040.52;105944;1260;98258;-85
2023/08/03 03:20:03;;;;;;;4.20;2.30;;;;;;;20.74;66.17;99005.53;105900;1266;98049;-85
2023/08/03 03:22:49;;;;;;;3.80;2.10;;;;;;;20.73;66.38;99020.25;105765;1260;98569;-84
2023/08/03 03:25:35;;;;;;;4.70;1.90;;;;;;;20.71;66.64;99027.89;106183;1264;101416;-85
2023/08/03 03:28:21;;;;;;;3.20;2.00;;;;;;;20.71;66.58;99056.51;105879;1261;99187;-85
2023/08/03 03:31:08;;;;;;;2.40;1.90;;;;;;;20.70;66.84;99040.67;105886;1260;99124;-87
2023/08/03 03:33:54;;;;;;;3.30;2.10;;;;;;;20.71;67.09;99015.96;106050;1261;98009;-85
2023/08/03 03:36:40;;;;;;;3.20;2.00;;;;;;;20.72;67.14;99017.31;105784;1261;98570;-85
2023/08/03 03:39:25;;;;;;;5.90;2.20;;;;;;;20.74;67.41;99019.95;105810;1260;102766;-83
2023/08/03 03:42:12;;;;;;;6.30;1.80;;;;;;;20.74;67.61;99030.61;106218;1264;100062;-85
2023/08/03 03:44:58;;;;;;;4.10;2.00;;;;;;;20.74;67.54;99035.19;105953;1260;98037;-84
2023/08/03 03:47:45;;;;;;;5.00;2.40;;;;;;;20.75;67.86;99044.38;105768;1261;97969;-85
2023/08/03 03:50:31;;;;;;;4.20;2.40;;;;;;;20.74;67.98;99078.24;105946;1263;97887;-86
2023/08/03 03:53:17;;;;;;;3.70;2.30;;;;;;;20.73;68.09;99092.19;105796;1261;102192;-84
2023/08/03 03:56:03;;;;;;;4.40;2.20;;;;;;;20.74;68.39;99078.14;105711;1261;99893;-84
2023/08/03 03:58:49;;;;;;;3.90;1.80;;;;;;;20.74;68.66;99067.80;105812;1260;99160;-84
2023/08/03 04:01:35;;;;;;;2.70;1.70;;;;;;;20.75;68.62;99052.92;105879;1260;98067;-85
2023/08/03 04:04:21;;;;;;;2.70;1.90;;;;;;;20.76;68.95;99055.63;105823;1265;97817;-84
2023/08/03 04:07:07;;;;;;;3.60;1.80;;;;;;;20.76;69.08;99061.17;105844;1261;102743;-84
2023/08/03 04:09:53;;;;;;;2.50;1.80;;;;;;;20.78;69.13;99063.54;105954;1260;99292;-85
2023/08/03 04:12:40;;;;;;;5.00;2.00;;;;;;;20.78;69.41;99063.11;105728;1270;99010;-84
2023/08/03 04:15:26;;;;;;;4.20;1.80;;;;;;;20.79;69.78;99062.07;105955;1264;97965;-86
2023/08/03 04:18:11;;;;;;;4.90;2.00;;;;;;;20.80;70.01;99065.98;105780;1260;98725;-85
2023/08/03 04:20:57;;;;;;;2.90;1.90;;;;;;;20.80;70.46;99067.57;106168;1260;101508;-86
2023/08/03 04:23:43;;;;;;;6.00;1.60;;;;;;;20.81;70.58;99074.20;105795;1261;100478;-86
2023/08/03 04:26:29;;;;;;;2.80;2.00;;;;;;;20.81;71.05;99094.61;106176;1263;98067;-85
2023/08/03 04:29:15;;;;;;;3.70;2.10;;;;;;;20.82;71.46;99103.85;105874;1260;98902;-86
2023/08/03 04:32:01;;;;;;;3.80;1.70;;;;;;;20.83;71.73;99100.13;105922;1264;97948;-86
2023/08/03 04:34:47;;;;;;;2.60;1.70;;;;;;;20.86;71.99;99098.14;105956;1261;102177;-87
2023/08/03 04:37:33;;;;;;;1.90;1.50;;;;;;;20.90;72.39;99096.63;105899;1260;99313;-85
2023/08/03 04:40:20;;;;;;;4.50;2.00;;;;;;;20.94;72.37;99103.10;106141;1260;99092;-86
2023/08/03 04:43:06;;;;;;;2.10;1.70;;;;;;;20.99;72.54;99090.41;106142;1259;98476;-87
2023/08/03 04:45:52;;;;;;;3.10;2.00;;;;;;;21.04;72.72;99097.55;106063;1260;98496;-86
2023/08/03 04:48:39;;;;;;;5.20;1.80;;;;;;;21.12;72.74;99106.30;106114;1259;102149;-86
2023/08/03 04:51:27;;;;;;;5.10;2.00;;;;;;;21.20;72.85;99107.13;106110;1259;99066;-85
2023/08/03 04:54:13;;;;;;;3.90;2.00;;;;;;;21.25;72.91;99113.64;105913;1260;97962;-86
2023/08/03 04:56:59;;;;;;;2.00;1.50;;;;;;;21.31;73.24;99109.00;106018;1259;98048;-86
2023/08/03 04:59:45;;;;;;;2.80;1.70;;;;;;;21.33;73.19;99124.76;106032;1259;98009;-84
2023/08/03 05:02:31;;;;;;;2.90;1.90;;;;;;;21.36;73.27;99136.42;105897;1259;101395;-84
2023/08/03 05:05:17;;;;;;;3.00;1.70;;;;;;;21.37;73.46;99146.25;105981;1261;99241;-86
2023/08/03 05:08:03;;;;;;;2.20;1.50;;;;;;;21.40;73.62;99143.52;105999;1264;98057;-85
2023/08/03 05:10:49;;;;;;;6.80;2.10;;;;;;;21.45;74.00;99128.69;105977;1265;98015;-85
2023/08/03 05:13:36;;;;;;;5.00;1.80;;;;;;;21.51;73.96;99119.34;106348;1259;98451;-85
2023/08/03 05:16:26;;;;;;;4.40;1.80;;;;;;;21.56;74.16;99108.27;105872;1260;101429;-84
2023/08/03 05:19:12;;;;;;;4.20;2.10;;;;;;;21.58;74.09;99112.75;105932;1260;99194;-85
2023/08/03 05:21:58;;;;;;;3.10;1.80;;;;;;;21.58;74.20;99116.80;105824;1261;97973;-84
2023/08/03 05:24:43;;;;;;;2.30;1.60;;;;;;;21.59;74.46;99122.13;105845;1259;98657;-87
2023/08/03 05:27:29;;;;;;;2.70;1.80;;;;;;;21.59;74.67;99122.48;105893;1259;98505;-84
2023/08/03 05:30:15;;;;;;;3.70;1.50;;;;;;;21.61;74.89;99109.18;105931;1261;102862;-84
2023/08/03 05:33:02;;;;;;;4.10;1.60;;;;;;;21.63;74.94;99098.36;105704;1264;99273;-85
2023/08/03 05:35:48;;;;;;;3.40;1.70;;;;;;;21.66;75.13;99107.35;105597;1265;98114;-85
2023/08/03 05:38:34;;;;;;;4.60;1.80;;;;;;;21.70;75.32;99099.66;105996;1264;98060;-85
2023/08/03 05:41:27;;;;;;;3.20;1.60;;;;;;;21.74;75.37;99101.14;106264;1267;97766;-86
2023/08/03 05:44:16;;;;;;;2.60;2.00;;;;;;;21.77;75.35;99091.43;105980;1260;102416;-85
2023/08/03 05:47:02;;;;;;;4.80;1.90;;;;;;;21.82;75.31;99101.63;106048;1259;100160;-85
2023/08/03 05:49:47;;;;;;;3.80;1.80;;;;;;;21.94;75.50;99122.23;106198;1261;99122;-86
2023/08/03 05:52:33;;;;;;;3.10;1.50;;;;;;;22.08;75.63;99126.86;106140;1262;97963;-86
2023/08/03 05:55:19;;;;;;;3.10;1.70;;;;;;;22.17;75.53;99158.94;106005;1268;97972;-86
2023/08/03 05:58:08;;;;;;;3.70;1.60;;;;;;;22.25;75.37;99171.52;106065;1258;101477;-84
2023/08/03 06:00:54;;;;;;;2.00;1.90;;;;;;;22.31;75.07;99179.27;105850;1261;100543;-83
2023/08/03 06:03:45;;;;;;;2.00;1.60;;;;;;;22.36;75.16;99197.17;105812;1267;99007;-82
2023/08/03 06:06:32;;;;;;;3.50;1.90;;;;;;;22.40;75.21;99196.94;106533;1264;97917;-86
2023/08/03 06:09:21;;;;;;;3.60;1.60;;;;;;;22.41;74.83;99204.98;106274;1264;97858;-90
2023/08/03 06:12:14;;;;;;;4.40;2.40;;;;;;;22.42;74.51;99206.66;105859;1260;101454;-84
2023/08/03 06:14:59;;;;;;;1.90;1.70;;;;;;;22.41;74.71;99200.77;105754;1261;99153;-87
2023/08/03 06:17:45;;;;;;;2.60;1.80;;;;;;;22.42;74.75;99188.54;105823;1260;98004;-83
2023/08/03 06:20:32;;;;;;;3.70;1.90;;;;;;;22.43;74.68;99170.80;106076;1259;97943;-81
2023/08/03 06:23:20;;;;;;;6.70;1.70;;;;;;;22.44;74.38;99139.40;106279;1261;97942;-81
2023/08/03 06:26:11;;;;;;;2.50;1.70;;;;;;;22.45;74.46;99160.52;105754;1259;102576;-82
2023/08/03 06:28:58;;;;;;;3.00;1.90;;;;;;;22.47;74.45;99173.73;106290;1261;99204;-84
2023/08/03 06:31:44;;;;;;;4.70;1.60;;;;;;;22.47;74.54;99181.80;106324;1259;98610;-81
2023/08/03 06:34:29;;;;;;;2.80;2.10;;;;;;;22.46;74.66;99181.27;105929;1261;97918;-83
2023/08/03 06:37:15;;;;;;;4.60;1.70;;;;;;;22.47;74.63;99160.70;106063;1261;97980;-81
2023/08/03 06:40:01;;;;;;;3.10;1.60;;;;;;;22.48;74.66;99150.68;106128;1261;101422;-86
2023/08/03 06:42:46;;;;;;;2.70;1.70;;;;;;;22.49;74.50;99115.62;105907;1259;99069;-82
2023/08/03 06:45:33;;;;;;;3.50;1.80;;;;;;;22.50;74.29;99037.72;105808;1261;98052;-83
2023/08/03 06:48:19;;;;;;;4.10;1.90;;;;;;;22.50;74.44;99103.11;105525;1269;98112;-83
2023/08/03 06:51:05;;;;;;;2.00;1.80;;;;;;;22.46;74.47;99157.80;105842;1259;98466;-83
2023/08/03 06:53:51;;;;;;;2.90;1.60;;;;;;;22.43;74.45;99183.56;105783;1262;102244;-83
2023/08/03 06:56:37;;;;;;;3.90;1.70;;;;;;;22.40;74.43;99192.66;105784;1259;99183;-83
2023/08/03 06:59:23;;;;;;;1.80;1.60;;;;;;;22.40;74.69;99190.23;105769;1261;97878;-83
2023/08/03 07:02:08;;;;;;;5.70;1.70;;;;;;;22.40;74.79;99231.80;105684;1268;98059;-82
2023/08/03 07:04:53;;;;;;;4.50;2.00;;;;;;;22.40;74.51;99208.77;105705;1259;97970;-83
2023/08/03 07:07:39;;;;;;;2.50;2.00;;;;;;;22.38;74.63;99206.47;105748;1260;101445;-83
2023/08/03 07:10:25;;;;;;;3.30;1.80;;;;;;;22.37;75.06;99169.26;105919;1267;99244;-82
2023/08/03 07:13:13;;;;;;;3.60;1.80;;;;;;;22.39;74.94;99165.61;106112;1259;98003;-83
2023/08/03 07:16:08;;;;;;;6.10;2.00;;;;;;;22.40;75.21;99169.91;107840;1259;96685;-84
2023/08/03 07:18:56;;;;;;;5.40;1.70;;;;;;;22.40;75.01;99221.64;107315;1259;97896;-81
2023/08/03 07:21:41;;;;;;;3.00;1.80;;;;;;;22.40;75.19;99237.09;107181;1262;101441;-83
2023/08/03 07:24:29;;;;;;;2.70;2.00;;;;;;;22.42;75.32;99229.48;107268;1260;99477;-84
2023/08/03 07:27:15;;;;;;;3.40;1.80;;;;;;;22.44;75.38;99221.75;108169;1259;98550;-82
2023/08/03 07:30:01;;;;;;;3.00;1.60;;;;;;;22.45;75.59;99234.95;107418;1259;97965;-83
2023/08/03 07:32:47;;;;;;;5.30;1.50;;;;;;;22.45;75.44;99240.84;107568;1259;96646;-87
2023/08/03 07:35:37;;;;;;;3.60;1.60;;;;;;;22.48;75.55;99236.70;107267;1266;101466;-83
2023/08/03 07:38:22;;;;;;;2.20;1.50;;;;;;;22.50;75.72;99221.27;106699;1262;99142;-83
2023/08/03 07:41:08;;;;;;;4.30;1.80;;;;;;;22.51;75.61;99211.52;105699;1264;101290;-84
2023/08/03 07:43:54;;;;;;;1.60;1.50;;;;;;;22.51;75.74;99208.38;105643;1267;97973;-83
2023/08/03 07:46:40;;;;;;;3.20;1.60;;;;;;;22.50;75.94;99192.13;105776;1263;97977;-83
2023/08/03 07:49:26;;;;;;;4.90;1.50;;;;;;;22.48;75.84;99179.66;105445;1267;121834;-84
2023/08/03 07:52:11;;;;;;;2.90;1.70;;;;;;;22.46;76.32;99202.35;105991;1264;99211;-83
2023/08/03 07:54:57;;;;;;;2.60;1.50;;;;;;;22.41;76.65;99218.63;105746;1261;98638;-84
2023/08/03 07:57:43;;;;;;;2.60;1.60;;;;;;;22.39;76.90;99243.73;105792;1265;98006;-85
2023/08/03 08:00:28;;;;;;;3.30;1.50;;;;;;;22.32;76.85;99282.40;106262;1266;97962;-88
2023/08/03 08:03:14;;;;;;;7.60;1.80;;;;;;;22.23;76.90;99293.21;106216;1261;101465;-83
2023/08/03 08:06:10;;;;;;;3.90;1.60;;;;;;;22.17;77.14;99291.61;106207;1260;99224;-87
2023/08/03 08:08:55;;;;;;;4.20;1.80;;;;;;;22.10;77.14;99282.88;105938;1266;98995;-81
2023/08/03 08:11:41;;;;;;;1.90;1.60;;;;;;;22.09;77.61;99283.77;105828;1261;97956;-81
2023/08/03 08:14:26;;;;;;;3.70;1.90;;;;;;;22.07;77.82;99280.45;106075;1260;98397;-80
2023/08/03 08:17:12;;;;;;;2.30;1.70;;;;;;;22.05;77.81;99240.90;106106;1263;103439;-81
2023/08/03 08:19:59;;;;;;;2.50;1.50;;;;;;;22.04;77.93;99235.73;106072;1261;100593;-81
2023/08/03 08:22:44;;;;;;;2.90;2.10;;;;;;;22.04;78.02;99261.62;106007;1260;97982;-82
2023/08/03 08:25:33;;;;;;;5.60;1.60;;;;;;;22.05;78.43;99284.47;105939;1263;97990;-82
2023/08/03 08:28:19;;;;;;;5.20;1.80;;;;;;;22.05;78.33;99285.39;106002;1261;98500;-83
2023/08/03 08:31:05;;;;;;;3.20;1.60;;;;;;;22.05;78.60;99289.54;105870;1261;101432;-80
2023/08/03 08:33:50;;;;;;;2.80;1.30;;;;;;;22.07;78.53;99281.48;106069;1261;100473;-82
2023/08/03 08:36:36;;;;;;;2.80;1.50;;;;;;;22.09;78.56;99282.02;105968;1260;98865;-82
2023/08/03 08:39:21;;;;;;;2.10;1.50;;;;;;;22.07;78.36;99325.19;105897;1260;98042;-85
2023/08/03 08:42:12;;;;;;;2.90;1.70;;;;;;;22.05;78.39;99322.48;105902;1260;98026;-82
2023/08/03 08:44:58;;;;;;;4.80;1.90;;;;;;;22.04;78.54;99331.27;106035;1263;103443;-81
2023/08/03 08:47:45;;;;;;;5.20;1.40;;;;;;;22.06;78.93;99322.64;106000;1259;99150;-82
2023/08/03 08:50:32;;;;;;;2.10;1.40;;;;;;;22.06;78.81;99307.36;105868;1260;97976;-82
2023/08/03 08:53:18;;;;;;;3.70;1.80;;;;;;;22.07;78.79;99299.94;105979;1262;98045;-84
2023/08/03 08:56:04;;;;;;;5.60;1.70;;;;;;;22.07;78.61;99310.52;106005;1261;97960;-84
2023/08/03 08:58:50;;;;;;;2.10;1.50;;;;;;;22.08;78.56;99320.21;106213;1260;111342;-81
2023/08/03 09:01:49;;;;;;;1.90;1.50;;;;;;;22.09;78.74;99329.77;106025;1261;99861;-83
2023/08/03 09:04:34;;;;;;;2.30;1.70;;;;;;;22.09;78.73;99324.79;105955;1260;97900;-82
2023/08/03 09:07:20;;;;;;;2.90;1.90;;;;;;;22.09;78.62;99321.35;106046;1260;97953;-83
2023/08/03 09:10:06;;;;;;;4.40;2.00;;;;;;;22.08;78.51;99303.95;105915;1261;98074;-83
2023/08/03 09:12:52;;;;;;;2.50;1.70;;;;;;;22.07;78.35;99293.48;106232;1259;101358;-83
2023/08/03 09:15:40;;;;;;;1.80;1.70;;;;;;;22.06;78.50;99302.34;105874;1260;99135;-82
2023/08/03 09:18:27;;;;;;;2.80;1.30;;;;;;;22.08;78.77;99327.14;106220;1265;97983;-82
2023/08/03 09:21:15;;;;;;;5.70;1.60;;;;;;;22.10;78.72;99319.53;106101;1266;97917;-81
2023/08/03 09:24:17;;;;;;;2.50;1.90;;;;;;;22.12;78.56;99296.09;106038;1259;100519;-81
2023/08/03 09:27:03;;;;;;;3.20;1.70;;;;;;;22.16;78.70;99275.81;106228;1259;102761;-82
2023/08/03 09:29:49;;;;;;;2.00;1.70;;;;;;;22.20;78.06;99289.98;105903;1259;100440;-81
2023/08/03 09:32:34;;;;;;;3.70;1.90;;;;;;;22.23;78.06;99258.61;106071;1260;98398;-82
2023/08/03 09:35:25;;;;;;;2.40;1.90;;;;;;;22.25;77.67;99233.88;106028;1259;97909;-81
2023/08/03 09:38:23;;;;;;;3.30;1.60;;;;;;;22.24;77.23;99255.17;106206;1264;97983;-81
2023/08/03 09:41:10;;;;;;;3.10;1.80;;;;;;;22.23;77.31;99245.26;106024;1260;102989;-84
2023/08/03 09:43:56;;;;;;;2.10;1.50;;;;;;;22.24;77.42;99247.59;106150;1264;99179;-81
2023/08/03 09:46:42;;;;;;;5.00;1.60;;;;;;;22.22;77.05;99331.70;106067;1259;97980;-82
2023/08/03 09:49:28;;;;;;;2.10;1.50;;;;;;;22.16;76.97;99379.94;105915;1262;95913;-83
2023/08/03 09:52:20;;;;;;;3.90;1.50;;;;;;;22.11;77.05;99402.21;105956;1263;98494;-81
2023/08/03 09:55:18;;;;;;;4.00;1.80;;;;;;;22.07;76.87;99384.74;106037;1259;101534;-82
2023/08/03 09:58:06;;;;;;;5.20;1.40;;;;;;;22.07;77.10;99372.20;106347;1259;100408;-82
2023/08/03 10:00:52;;;;;;;3.90;2.10;;;;;;;22.09;77.31;99374.03;106784;1262;98964;-81
2023/08/03 10:03:46;;;;;;;7.10;4.50;;;;;;;22.11;77.33;99318.15;106050;1261;98089;-82
2023/08/03 10:06:38;;;;;;;4.10;3.50;;;;;;;22.15;76.93;99309.52;105950;1265;98442;-81
2023/08/03 10:09:28;;;;;;;3.30;2.10;;;;;;;22.16;77.04;99381.36;106805;1262;102611;-83
2023/08/03 10:12:24;;;;;;;5.50;2.50;;;;;;;22.14;77.03;99391.42;106020;1264;100340;-81
2023/08/03 10:15:14;;;;;;;3.90;2.00;;;;;;;22.12;76.96;99396.58;106168;1261;97908;-83
2023/08/03 10:18:00;;;;;;;3.50;1.90;;;;;;;22.12;76.77;99385.17;106079;1259;98010;-82
2023/08/03 10:20:47;;;;;;;4.30;1.70;;;;;;;22.16;76.87;99391.34;105985;1261;97987;-80
2023/08/03 10:23:38;;;;;;;3.00;1.50;;;;;;;22.19;76.37;99404.23;105916;1259;101944;-84
2023/08/03 10:26:24;;;;;;;2.00;1.40;;;;;;;22.20;75.91;99381.16;106138;1262;100137;-82
2023/08/03 10:29:10;;;;;;;3.90;1.90;;;;;;;22.19;75.23;99352.75;105997;1259;99047;-81
2023/08/03 10:31:56;;;;;;;3.00;1.80;;;;;;;22.16;75.03;99317.48;106103;1263;97792;-82
2023/08/03 10:34:42;;;;;;;4.40;1.90;;;;;;;22.17;74.80;99278.20;106419;1261;98416;-83
2023/08/03 10:37:28;;;;;;;4.00;1.40;;;;;;;22.17;74.70;99303.78;106162;1263;102743;-83
2023/08/03 10:40:22;;;;;;;5.00;2.10;;;;;;;22.20;74.60;99261.79;106210;1261;100094;-81
2023/08/03 10:43:08;;;;;;;4.00;1.60;;;;;;;22.23;73.69;99294.69;105936;1259;98286;-82
2023/08/03 10:45:54;;;;;;;2.00;1.40;;;;;;;22.22;73.63;99330.66;105990;1260;97802;-83
2023/08/03 10:48:40;;;;;;;3.30;1.70;;;;;;;22.21;74.06;99252.33;106016;1266;98070;-82
2023/08/03 10:51:26;;;;;;;6.00;1.50;;;;;;;22.21;73.44;99249.27;105795;1266;102803;-81
2023/08/03 10:54:11;;;;;;;3.10;1.50;;;;;;;22.21;72.87;99256.65;106273;1259;100359;-81
2023/08/03 10:57:05;;;;;;;4.10;1.60;;;;;;;22.18;72.67;99301.27;106088;1262;99742;-82
2023/08/03 10:59:53;;;;;;;3.90;1.50;;;;;;;22.13;73.11;99359.86;106767;1263;97990;-82
2023/08/03 11:02:42;;;;;;;1.70;1.20;;;;;;;22.10;73.40;99342.13;105973;1259;96597;-81
2023/08/03 11:05:28;;;;;;;3.00;1.50;;;;;;;22.09;73.69;99357.57;106143;1260;101431;-84
2023/08/03 11:08:15;;;;;;;5.20;2.00;;;;;;;22.06;74.10;99388.73;106087;1261;99715;-83
2023/08/03 11:11:01;;;;;;;3.90;1.90;;;;;;;22.04;74.85;99390.52;106074;1261;99020;-83
2023/08/03 11:13:46;;;;;;;3.50;1.40;;;;;;;22.00;75.13;99417.94;105874;1259;98863;-81
2023/08/03 11:16:33;;;;;;;2.30;1.40;;;;;;;21.93;75.56;99433.39;105889;1259;98189;-82
2023/08/03 11:19:21;;;;;;;5.60;1.60;;;;;;;21.88;75.93;99448.30;105954;1265;111162;-83
2023/08/03 11:22:08;;;;;;;2.50;1.80;;;;;;;21.85;76.54;99452.23;105861;1267;99091;-81
2023/08/03 11:24:56;;;;;;;3.60;1.60;;;;;;;21.86;76.83;99453.27;105909;1261;98889;-81
2023/08/03 11:27:42;;;;;;;6.00;2.10;;;;;;;21.84;77.24;99439.45;105993;1259;97997;-81
2023/08/03 11:30:28;;;;;;;3.40;1.60;;;;;;;21.84;77.60;99411.63;106020;1259;97948;-82
2023/08/03 11:33:14;;;;;;;3.20;1.80;;;;;;;21.84;77.94;99384.86;106094;1264;102657;-80
2023/08/03 11:36:00;;;;;;;2.30;1.50;;;;;;;21.86;78.51;99359.42;106086;1262;99225;-83
2023/08/03 11:38:47;;;;;;;3.00;1.90;;;;;;;21.87;78.68;99382.31;106267;1259;98967;-84
2023/08/03 11:41:32;;;;;;;5.20;2.10;;;;;;;21.87;79.16;99392.61;105713;1261;98071;-85
2023/08/03 11:44:22;;;;;;;5.20;2.20;;;;;;;21.87;79.81;99398.17;105793;1262;98441;-85
2023/08/03 11:47:08;;;;;;;3.80;2.00;;;;;;;21.87;80.00;99372.45;105808;1263;101380;-86
2023/08/03 11:49:56;;;;;;;2.70;1.80;;;;;;;21.87;80.01;99338.64;105872;1267;99238;-85
2023/08/03 11:52:41;;;;;;;2.30;1.70;;;;;;;21.87;80.04;99352.20;105935;1263;98491;-86
2023/08/03 11:55:38;;;;;;;2.90;2.10;;;;;;;21.84;80.43;99363.37;106054;1260;97867;-86
2023/08/03 11:58:24;;;;;;;4.20;1.70;;;;;;;21.83;80.50;99349.64;105902;1265;98069;-82
2023/08/03 12:01:10;;;;;;;4.50;2.10;;;;;;;21.84;80.92;99367.67;106043;1259;102123;-84
2023/08/03 12:04:07;;;;;;;3.20;2.30;;;;;;;21.85;80.99;99342.09;105766;1260;100319;-82
2023/08/03 12:06:53;;;;;;;3.50;2.40;;;;;;;21.88;81.22;99365.30;105747;1266;99209;-84
2023/08/03 12:09:40;;;;;;;3.70;2.00;;;;;;;21.92;81.56;99385.03;105814;1260;97943;-83
2023/08/03 12:12:26;;;;;;;4.80;2.20;;;;;;;21.93;81.54;99387.41;105774;1267;99145;-83
2023/08/03 12:15:12;;;;;;;6.20;2.50;;;;;;;21.93;80.94;99391.03;105832;1267;101441;-83
2023/08/03 12:17:58;;;;;;;2.50;1.60;;;;;;;21.88;81.13;99374.92;105917;1259;107701;-82
2023/08/03 12:20:44;;;;;;;4.30;2.00;;;;;;;21.85;80.86;99357.96;105943;1263;108166;-86
2023/08/03 12:23:29;;;;;;;6.40;2.20;;;;;;;21.81;80.84;99339.01;105820;1260;98051;-85
2023/08/03 12:26:15;;;;;;;4.40;2.40;;;;;;;21.80;80.94;99320.04;105702;1262;98491;-81
2023/08/03 12:29:01;;;;;;;3.60;1.80;;;;;;;21.79;80.76;99344.36;105675;1265;101442;-85
2023/08/03 12:31:48;;;;;;;3.90;2.10;;;;;;;21.80;81.04;99354.55;105950;1260;100473;-84
2023/08/03 12:34:34;;;;;;;3.60;1.90;;;;;;;21.84;81.07;99332.27;108014;1262;99612;-85
2023/08/03 12:37:19;;;;;;;5.00;2.30;;;;;;;21.89;80.94;99348.58;108006;1260;95790;-84
2023/08/03 12:40:05;;;;;;;9.40;2.70;;;;;;;21.95;80.88;99363.02;105733;1263;98488;-83
2023/08/03 12:42:51;;;;;;;4.70;2.50;;;;;;;22.08;81.00;99365.48;105709;1265;101542;-84
2023/08/03 12:45:37;;;;;;;7.00;2.20;;;;;;;22.27;81.62;99368.73;105536;1261;99302;-83
2023/08/03 12:48:23;;;;;;;2.90;1.80;;;;;;;22.50;81.12;99366.51;105729;1259;98444;-84
2023/08/03 12:51:09;;;;;;;4.60;2.00;;;;;;;22.64;80.21;99358.46;105672;1266;97872;-85